Time;durP1;ratioP1;P1;durP2;ratioP2;P2;SDS_P1;SDS_P2;PMS_P1;PMS_P2;Temp;Humidity;BMP_temperature;BMP_pressure;BME280_temperature;BME280_humidity;BME280_pressure;Samples;Min_cycle;Max_cycle;Signal;HPM_P1;HPM_P2
2022/06/04 00:00:27;;;;;;;;;;;;;;;20.87;43.35;100727.22;5021013;27;97616;-69
2022/06/04 00:02:53;;;;;;;;;;;;;;;20.84;43.53;100728.69;5030726;27;106319;-69
2022/06/04 00:05:25;;;;;;;;;;;;;;;20.81;43.60;100719.19;5040542;27;118796;-63
2022/06/04 00:07:51;;;;;;;;;;;;;;;20.80;43.86;100716.78;5036625;27;98139;-63
2022/06/04 00:15:48;;;;;;;;;;;;;;;20.76;44.08;100715.84;5019994;27;97663;-63
2022/06/04 00:18:14;;;;;;;;;;;;;;;20.75;44.06;100714.22;5019596;27;126184;-63
2022/06/04 00:20:40;;;;;;;;;;;;;;;20.72;44.12;100718.44;5021205;27;97409;-63
2022/06/04 00:23:07;;;;;;;;;;;;;;;20.68;44.64;100722.16;5032398;27;97447;-63
2022/06/04 00:25:34;;;;;;;;;;;;;;;20.63;45.13;100722.34;5038963;27;98001;-69
2022/06/04 00:28:01;;;;;;;;;;;;;;;20.56;45.11;100729.16;5040680;27;97654;-68
2022/06/04 00:30:27;;;;;;;;;;;;;;;20.48;45.51;100726.41;5041009;27;97798;-63
2022/06/04 00:32:53;;;;;;;;;;;;;;;20.42;45.61;100723.03;5029994;27;98488;-68
2022/06/04 00:35:19;;;;;;;;;;;;;;;20.34;45.80;100716.44;5018673;27;126820;-68
2022/06/04 00:37:45;;;;;;;;;;;;;;;20.29;46.17;100724.06;5015499;28;97667;-63
2022/06/04 00:40:13;;;;;;;;;;;;;;;20.24;46.25;100711.34;5001118;28;97680;-63
2022/06/04 00:42:39;;;;;;;;;;;;;;;20.21;46.56;100711.19;5006496;27;124146;-64
2022/06/04 00:45:36;;;;;;;;;;;;;;;20.17;47.00;100713.78;5018968;28;125504;-69
2022/06/04 00:48:06;;;;;;;;;;;;;;;20.15;47.28;100707.00;5019994;27;97311;-69
2022/06/04 00:50:37;;;;;;;;;;;;;;;20.11;47.76;100706.84;5019988;27;116445;-69
2022/06/04 00:53:04;;;;;;;;;;;;;;;20.06;48.24;100716.03;5023781;27;114959;-69
2022/06/04 00:55:51;;;;;;;;;;;;;;;19.99;48.44;100710.25;5037827;27;118220;-63
2022/06/04 00:58:49;;;;;;;;;;;;;;;19.94;48.85;100707.69;5006353;27;97532;-63
2022/06/04 01:01:25;;;;;;;;;;;;;;;19.90;49.49;100714.94;4998712;27;97873;-69
2022/06/04 01:03:55;;;;;;;;;;;;;;;19.84;49.85;100721.69;5034738;27;107312;-63
2022/06/04 01:06:40;;;;;;;;;;;;;;;19.77;49.96;100727.69;5038063;27;103092;-64
2022/06/04 01:09:27;;;;;;;;;;;;;;;19.73;50.72;100731.34;5021239;27;98171;-68
2022/06/04 01:12:09;;;;;;;;;;;;;;;19.67;50.91;100736.19;5036398;27;113741;-64
2022/06/04 01:14:55;;;;;;;;;;;;;;;19.60;51.55;100730.38;4996277;28;125595;-69
2022/06/04 01:17:33;;;;;;;;;;;;;;;19.52;51.63;100726.50;4998609;28;104133;-69
2022/06/04 01:20:18;;;;;;;;;;;;;;;19.46;52.26;100722.34;4997302;28;98375;-69
2022/06/04 01:22:54;;;;;;;;;;;;;;;19.38;52.51;100723.94;5039651;27;97581;-64
2022/06/04 01:25:29;;;;;;;;;;;;;;;19.32;52.90;100721.66;5019955;27;98741;-64
2022/06/04 01:28:02;;;;;;;;;;;;;;;19.27;53.48;100727.31;5035533;27;98952;-70
2022/06/04 01:30:34;;;;;;;;;;;;;;;19.19;54.10;100725.34;5017743;27;116462;-64
2022/06/04 01:33:23;;;;;;;;;;;;;;;19.11;54.36;100719.56;5017806;28;97527;-69
2022/06/04 01:36:32;;;;;;;;;;;;;;;19.04;54.26;100715.69;5017589;27;125161;-63
2022/06/04 01:39:06;;;;;;;;;;;;;;;19.01;54.14;100713.56;5026890;27;98709;-63
2022/06/04 01:41:35;;;;;;;;;;;;;;;18.97;54.53;100702.47;5020105;27;99651;-63
2022/06/04 01:44:33;;;;;;;;;;;;;;;18.96;54.66;100700.88;5017990;27;112872;-68
2022/06/04 01:47:01;;;;;;;;;;;;;;;18.93;55.17;100706.97;5017472;27;124383;-63
2022/06/04 01:49:34;;;;;;;;;;;;;;;18.87;55.51;100702.78;5011443;28;98528;-69
2022/06/04 01:52:05;;;;;;;;;;;;;;;18.79;55.49;100704.38;5016989;27;108393;-69
2022/06/04 01:54:36;;;;;;;;;;;;;;;18.76;55.59;100707.72;4998427;28;117612;-71
2022/06/04 01:57:05;;;;;;;;;;;;;;;18.74;55.54;100712.69;5016494;28;119753;-69
2022/06/04 01:59:39;;;;;;;;;;;;;;;18.73;55.47;100710.28;5018857;27;98484;-63
2022/06/04 02:02:08;;;;;;;;;;;;;;;18.72;55.71;100716.88;5017694;27;97987;-71
2022/06/04 02:04:37;;;;;;;;;;;;;;;18.72;55.63;100725.06;5017277;27;106652;-63
2022/06/04 02:09:54;;;;;;;;;;;;;;;18.71;56.09;100712.53;5003140;28;97477;-64
2022/06/04 02:12:19;;;;;;;;;;;;;;;18.72;56.14;100712.22;5000772;28;97487;-63
2022/06/04 02:14:45;;;;;;;;;;;;;;;18.72;56.35;100708.69;5018180;27;116401;-63
2022/06/04 02:17:13;;;;;;;;;;;;;;;18.69;56.49;100712.81;5016385;28;127102;-69
2022/06/04 02:19:40;;;;;;;;;;;;;;;18.69;56.68;100712.00;5030210;27;98675;-63
2022/06/04 02:22:06;;;;;;;;;;;;;;;18.69;57.20;100703.81;5038122;27;123110;-63
2022/06/04 02:24:32;;;;;;;;;;;;;;;18.67;57.35;100697.84;5034554;27;115884;-63
2022/06/04 02:26:58;;;;;;;;;;;;;;;18.64;57.48;100696.59;5037751;27;126799;-69
2022/06/04 02:29:24;;;;;;;;;;;;;;;18.64;57.36;100702.03;5023419;27;125476;-68
2022/06/04 02:31:55;;;;;;;;;;;;;;;18.62;57.43;100712.47;5015785;27;103853;-69
2022/06/04 02:34:31;;;;;;;;;;;;;;;18.61;57.74;100713.59;5016452;27;113894;-63
2022/06/04 02:37:13;;;;;;;;;;;;;;;18.59;57.72;100711.19;5018569;27;98258;-63
2022/06/04 02:39:48;;;;;;;;;;;;;;;18.58;57.75;100708.75;5028238;27;98534;-63
2022/06/04 02:42:32;;;;;;;;;;;;;;;18.55;57.75;100709.38;5036732;27;126616;-63
2022/06/04 02:45:03;;;;;;;;;;;;;;;18.52;57.97;100699.91;5010956;27;97760;-69
2022/06/04 02:47:53;;;;;;;;;;;;;;;18.51;58.19;100698.31;5016706;27;116511;-63
2022/06/04 02:50:20;;;;;;;;;;;;;;;18.48;58.17;100698.94;5023989;27;115676;-69
2022/06/04 02:52:46;;;;;;;;;;;;;;;18.45;58.35;100699.56;5016253;27;126696;-63
2022/06/04 02:55:21;;;;;;;;;;;;;;;18.44;58.35;100699.88;5014562;28;116364;-63
2022/06/04 02:57:49;;;;;;;;;;;;;;;18.42;58.50;100708.34;5016885;27;98313;-64
2022/06/04 03:00:18;;;;;;;;;;;;;;;18.44;58.40;100710.78;4999941;27;119667;-69
2022/06/04 03:02:44;;;;;;;;;;;;;;;18.43;58.60;100715.44;5016403;27;98166;-68
2022/06/04 03:05:15;;;;;;;;;;;;;;;18.43;58.67;100720.06;5017595;27;116197;-69
2022/06/04 03:07:43;;;;;;;;;;;;;;;18.42;58.59;100713.03;5026758;27;99495;-63
2022/06/04 03:10:13;;;;;;;;;;;;;;;18.39;58.69;100720.72;5042359;27;97713;-69
2022/06/04 03:12:39;;;;;;;;;;;;;;;18.40;58.82;100721.53;5037754;27;124789;-69
2022/06/04 03:15:06;;;;;;;;;;;;;;;18.38;58.83;100724.56;5039400;27;117033;-69
2022/06/04 03:17:32;;;;;;;;;;;;;;;18.39;58.77;100722.63;5039146;27;98061;-63
2022/06/04 03:19:58;;;;;;;;;;;;;;;18.39;59.21;100733.53;5021028;27;127273;-70
2022/06/04 03:22:24;;;;;;;;;;;;;;;18.36;59.37;100732.25;5031897;27;126654;-67
2022/06/04 03:24:50;;;;;;;;;;;;;;;18.35;59.33;100741.56;5040912;27;97117;-68
2022/06/04 03:27:16;;;;;;;;;;;;;;;18.34;59.56;100750.06;5041795;27;98478;-63
2022/06/04 03:29:41;;;;;;;;;;;;;;;18.31;59.75;100734.31;5039278;27;126821;-68
2022/06/04 03:32:07;;;;;;;;;;;;;;;18.30;59.70;100727.25;5031244;27;127468;-68
2022/06/04 03:34:33;;;;;;;;;;;;;;;18.31;59.65;100731.56;5019942;27;116431;-63
2022/06/04 03:36:59;;;;;;;;;;;;;;;18.31;59.64;100735.13;5020489;27;98832;-68
2022/06/04 03:39:25;;;;;;;;;;;;;;;18.32;59.79;100728.56;5034255;27;127822;-63
2022/06/04 03:41:51;;;;;;;;;;;;;;;18.34;59.78;100730.94;5033436;27;126264;-62
2022/06/04 03:44:17;;;;;;;;;;;;;;;18.35;59.80;100727.94;5021252;27;97313;-68
2022/06/04 03:46:43;;;;;;;;;;;;;;;18.36;59.96;100720.53;5019633;27;125458;-63
2022/06/04 03:49:09;;;;;;;;;;;;;;;18.36;60.11;100721.34;5020930;27;126770;-68
2022/06/04 03:51:37;;;;;;;;;;;;;;;18.36;60.04;100732.25;5020594;27;107875;-67
2022/06/04 03:54:03;;;;;;;;;;;;;;;18.38;60.00;100729.22;5021287;27;97579;-68
2022/06/04 03:56:29;;;;;;;;;;;;;;;18.39;60.27;100728.09;5019917;28;120678;-69
2022/06/04 03:58:55;;;;;;;;;;;;;;;18.39;60.20;100728.09;5030456;27;127854;-62
2022/06/04 04:01:23;;;;;;;;;;;;;;;18.38;60.50;100718.28;5037507;27;126397;-68
2022/06/04 04:03:49;;;;;;;;;;;;;;;18.38;60.36;100726.47;5037574;27;114969;-62
2022/06/04 04:06:26;;;;;;;;;;;;;;;18.39;60.16;100720.72;5040206;27;98552;-68
2022/06/04 04:08:52;;;;;;;;;;;;;;;18.42;60.25;100718.47;5039370;27;109375;-62
2022/06/04 04:11:19;;;;;;;;;;;;;;;18.45;60.48;100723.31;5037686;27;122798;-62
2022/06/04 04:13:46;;;;;;;;;;;;;;;18.49;60.20;100724.28;5020789;27;98370;-68
2022/06/04 04:16:12;;;;;;;;;;;;;;;18.50;60.32;100718.50;5019201;27;98721;-68
2022/06/04 04:18:38;;;;;;;;;;;;;;;18.53;60.36;100722.53;5028619;27;111531;-68
2022/06/04 04:21:06;;;;;;;;;;;;;;;18.55;60.24;100728.47;5040215;27;97692;-68
2022/06/04 04:23:32;;;;;;;;;;;;;;;18.58;60.43;100727.84;5037729;27;97489;-62
2022/06/04 04:25:57;;;;;;;;;;;;;;;18.57;60.38;100727.06;5040078;27;103860;-68
2022/06/04 04:28:23;;;;;;;;;;;;;;;18.58;60.41;100725.94;5040203;27;108638;-68
2022/06/04 04:30:49;;;;;;;;;;;;;;;18.60;60.55;100722.91;5038978;27;126989;-63
2022/06/04 04:33:15;;;;;;;;;;;;;;;18.62;60.59;100716.00;5024485;27;97245;-63
2022/06/04 04:35:42;;;;;;;;;;;;;;;18.66;60.56;100716.16;5030139;27;127312;-68
2022/06/04 04:38:07;;;;;;;;;;;;;;;18.68;60.38;100710.41;5009721;28;97541;-63
2022/06/04 04:40:33;;;;;;;;;;;;;;;18.70;60.39;100719.91;5026599;27;98059;-68
2022/06/04 04:42:59;;;;;;;;;;;;;;;18.70;60.44;100716.34;5026035;27;117086;-62
2022/06/04 04:45:26;;;;;;;;;;;;;;;18.71;60.69;100721.53;5019161;27;98211;-68
2022/06/04 04:47:52;;;;;;;;;;;;;;;18.73;60.46;100716.56;5020328;27;98492;-62
2022/06/04 04:50:26;;;;;;;;;;;;;;;18.75;60.71;100724.44;5019935;27;98061;-68
2022/06/04 04:52:52;;;;;;;;;;;;;;;18.76;60.77;100721.38;5031714;27;97781;-68
2022/06/04 04:55:18;;;;;;;;;;;;;;;18.76;61.03;100718.66;5036883;27;123403;-62
2022/06/04 04:57:44;;;;;;;;;;;;;;;18.78;61.04;100718.31;5038455;27;110309;-62
2022/06/04 05:00:11;;;;;;;;;;;;;;;18.77;61.15;100725.72;5038842;27;125140;-68
2022/06/04 05:02:37;;;;;;;;;;;;;;;18.78;61.00;100723.78;5028863;27;113786;-67
2022/06/04 05:05:03;;;;;;;;;;;;;;;18.79;60.98;100730.88;5018841;27;127427;-68
2022/06/04 05:07:29;;;;;;;;;;;;;;;18.80;61.08;100725.09;5019477;27;97616;-62
2022/06/04 05:09:55;;;;;;;;;;;;;;;18.82;61.03;100735.69;5018745;27;126068;-63
2022/06/04 05:12:21;;;;;;;;;;;;;;;18.82;61.32;100731.06;5022160;27;97374;-62
2022/06/04 05:14:47;;;;;;;;;;;;;;;18.83;61.38;100738.13;5016696;28;107209;-62
2022/06/04 05:17:13;;;;;;;;;;;;;;;18.83;61.14;100735.38;5019136;28;126386;-67
2022/06/04 05:19:39;;;;;;;;;;;;;;;18.84;61.42;100733.47;5017895;27;127610;-69
2022/06/04 05:22:05;;;;;;;;;;;;;;;18.84;61.26;100737.00;5021365;27;97405;-68
2022/06/04 05:24:34;;;;;;;;;;;;;;;18.85;61.22;100738.59;5026523;27;116898;-62
2022/06/04 05:27:02;;;;;;;;;;;;;;;18.86;61.60;100747.59;5014166;27;98076;-68
2022/06/04 05:29:29;;;;;;;;;;;;;;;18.87;61.71;100762.88;5014118;27;97983;-62
2022/06/04 05:31:56;;;;;;;;;;;;;;;18.90;61.78;100762.22;5014467;27;97469;-62
2022/06/04 05:34:22;;;;;;;;;;;;;;;18.92;61.89;100764.66;5015237;27;98651;-62
2022/06/04 05:36:48;;;;;;;;;;;;;;;18.92;62.03;100767.38;5015860;27;98835;-64
2022/06/04 05:39:14;;;;;;;;;;;;;;;18.92;61.77;100770.91;5014343;28;97277;-68
2022/06/04 05:41:40;;;;;;;;;;;;;;;18.94;62.08;100754.19;5013442;27;103826;-63
2022/06/04 05:44:06;;;;;;;;;;;;;;;18.97;61.95;100759.03;5018893;27;101032;-68
2022/06/04 05:46:32;;;;;;;;;;;;;;;19.00;61.84;100769.34;5012578;27;123926;-68
2022/06/04 05:48:59;;;;;;;;;;;;;;;19.04;61.64;100770.31;5014221;27;127510;-67
2022/06/04 05:51:26;;;;;;;;;;;;;;;19.09;61.59;100761.97;5013133;27;97306;-63
2022/06/04 05:53:53;;;;;;;;;;;;;;;19.17;61.54;100760.38;5015863;27;120449;-62
2022/06/04 05:56:25;;;;;;;;;;;;;;;19.28;61.35;100762.50;5013427;27;98647;-67
2022/06/04 05:58:52;;;;;;;;;;;;;;;19.36;60.99;100775.38;5013734;27;97949;-68
2022/06/04 06:01:19;;;;;;;;;;;;;;;19.41;61.21;100768.94;5018608;27;116060;-68
2022/06/04 06:03:45;;;;;;;;;;;;;;;19.44;61.13;100772.97;5012946;27;125955;-62
2022/06/04 06:06:12;;;;;;;;;;;;;;;19.45;61.05;100775.38;5012787;28;108454;-62
2022/06/04 06:08:38;;;;;;;;;;;;;;;19.48;61.16;100777.47;5013526;27;105025;-62
2022/06/04 06:11:08;;;;;;;;;;;;;;;19.50;61.09;100782.63;5012628;27;111795;-62
2022/06/04 06:13:34;;;;;;;;;;;;;;;19.54;61.09;100787.16;5013102;27;97786;-68
2022/06/04 06:16:09;;;;;;;;;;;;;;;19.58;61.03;100792.78;5013066;27;98456;-62
2022/06/04 06:18:35;;;;;;;;;;;;;;;19.63;60.87;100789.91;5016423;27;99896;-62
2022/06/04 06:21:09;;;;;;;;;;;;;;;19.71;60.98;100793.78;5011348;27;97618;-62
2022/06/04 06:23:35;;;;;;;;;;;;;;;19.77;61.07;100798.78;5013623;27;97573;-68
2022/06/04 06:26:18;;;;;;;;;;;;;;;19.81;60.87;100797.00;5012839;27;98797;-68
2022/06/04 06:28:44;;;;;;;;;;;;;;;19.92;60.72;100789.28;5017098;27;97901;-63
2022/06/04 06:31:12;;;;;;;;;;;;;;;20.02;60.63;100788.97;5020270;27;97762;-68
2022/06/04 06:33:38;;;;;;;;;;;;;;;20.08;60.12;100790.41;5012293;27;127839;-62
2022/06/04 06:36:06;;;;;;;;;;;;;;;20.12;60.01;100793.28;5015593;27;123332;-68
2022/06/04 06:38:33;;;;;;;;;;;;;;;20.16;59.92;100798.91;5012201;27;97815;-67
2022/06/04 06:40:59;;;;;;;;;;;;;;;20.26;59.83;100793.91;5010542;28;97669;-62
2022/06/04 06:43:38;;;;;;;;;;;;;;;20.41;59.56;100800.81;5012599;27;98909;-61
2022/06/04 06:46:09;;;;;;;;;;;;;;;20.57;59.21;100798.41;5013494;27;98583;-62
2022/06/04 06:48:36;;;;;;;;;;;;;;;20.71;58.88;100803.66;5018349;27;97699;-62
2022/06/04 06:51:07;;;;;;;;;;;;;;;20.81;58.73;100804.09;5013836;27;97907;-67
2022/06/04 06:53:33;;;;;;;;;;;;;;;20.94;58.46;100809.69;5016236;27;98990;-61
2022/06/04 06:56:08;;;;;;;;;;;;;;;21.06;58.22;100809.81;5011697;28;98679;-68
2022/06/04 06:58:34;;;;;;;;;;;;;;;21.12;58.03;100810.44;5013467;27;98804;-62
2022/06/04 07:01:00;;;;;;;;;;;;;;;21.25;57.97;100818.41;5021562;27;116598;-62
2022/06/04 07:03:26;;;;;;;;;;;;;;;21.31;57.80;100816.31;5012498;27;98071;-62
2022/06/04 07:05:55;;;;;;;;;;;;;;;21.35;57.70;100806.31;5013763;27;129335;-62
2022/06/04 07:08:21;;;;;;;;;;;;;;;21.39;57.51;100826.44;5013044;27;97768;-67
2022/06/04 07:10:47;;;;;;;;;;;;;;;21.40;57.51;100827.25;5016273;27;115468;-62
2022/06/04 07:13:13;;;;;;;;;;;;;;;21.40;57.68;100817.06;5016591;27;117978;-67
2022/06/04 07:15:39;;;;;;;;;;;;;;;21.39;57.54;100825.66;5016002;27;126937;-62
2022/06/04 07:18:06;;;;;;;;;;;;;;;21.36;57.71;100826.31;5012449;27;98134;-61
2022/06/04 07:20:32;;;;;;;;;;;;;;;21.31;57.47;100832.75;5012864;28;97932;-67
2022/06/04 07:22:58;;;;;;;;;;;;;;;21.21;57.59;100841.34;5014833;27;126422;-62
2022/06/04 07:25:24;;;;;;;;;;;;;;;21.11;57.60;100844.47;5012871;27;97889;-67
2022/06/04 07:27:50;;;;;;;;;;;;;;;21.03;57.74;100838.69;5011279;27;123885;-67
2022/06/04 07:30:16;;;;;;;;;;;;;;;20.97;57.87;100833.72;5018531;27;118570;-67
2022/06/04 07:32:42;;;;;;;;;;;;;;;20.93;57.76;100850.00;5013353;27;125990;-67
2022/06/04 07:35:08;;;;;;;;;;;;;;;20.88;58.12;100849.38;5013401;27;128568;-62
2022/06/04 07:37:34;;;;;;;;;;;;;;;20.83;58.28;100853.09;5012811;27;97417;-67
2022/06/04 07:40:00;;;;;;;;;;;;;;;20.79;58.39;100852.16;5014539;27;117065;-67
2022/06/04 07:42:27;;;;;;;;;;;;;;;20.74;58.60;100855.84;5011320;27;127629;-67
2022/06/04 07:44:53;;;;;;;;;;;;;;;20.70;58.64;100859.56;5012754;28;98532;-67
2022/06/04 07:47:19;;;;;;;;;;;;;;;20.65;58.81;100870.69;5010595;28;124515;-62
2022/06/04 07:49:45;;;;;;;;;;;;;;;20.60;59.04;100866.22;5016308;27;99177;-67
2022/06/04 07:52:11;;;;;;;;;;;;;;;20.58;59.23;100863.78;5011531;27;127176;-67
2022/06/04 07:54:38;;;;;;;;;;;;;;;20.54;59.08;100871.03;5014423;27;126804;-67
2022/06/04 07:57:04;;;;;;;;;;;;;;;;;;5014893;27;98051;-67
2022/06/04 07:59:30;;;;;;;;;;;;;;;20.50;59.32;100874.75;5027753;27;114823;-61
2022/06/04 08:01:56;;;;;;;;;;;;;;;20.49;59.38;100879.41;5017744;27;126916;-62
2022/06/04 08:04:22;;;;;;;;;;;;;;;20.49;59.22;100873.94;5015870;27;127826;-67
2022/06/04 08:06:48;;;;;;;;;;;;;;;20.48;59.38;100880.53;5006810;28;113008;-66
2022/06/04 08:09:14;;;;;;;;;;;;;;;20.46;59.47;100873.75;5020475;27;115071;-67
2022/06/04 08:11:40;;;;;;;;;;;;;;;20.46;59.45;100879.22;5020137;27;127991;-62
2022/06/04 08:14:17;;;;;;;;;;;;;;;20.46;59.26;100879.22;5015569;27;97957;-69
2022/06/04 08:16:46;;;;;;;;;;;;;;;20.44;59.40;100889.72;5013332;28;98375;-63
2022/06/04 08:19:12;;;;;;;;;;;;;;;20.43;59.34;100880.66;5016556;27;97719;-67
2022/06/04 08:21:38;;;;;;;;;;;;;;;20.40;59.48;100897.75;5019488;27;128304;-67
2022/06/04 08:24:05;;;;;;;;;;;;;;;20.38;59.42;100897.28;5015320;27;98090;-67
2022/06/04 08:26:31;;;;;;;;;;;;;;;20.37;59.36;100900.34;5018289;27;113863;-67
2022/06/04 08:28:57;;;;;;;;;;;;;;;20.34;59.37;100904.53;5014694;28;117162;-62
2022/06/04 08:31:23;;;;;;;;;;;;;;;20.30;59.45;100903.56;5020532;27;128116;-67
2022/06/04 08:33:49;;;;;;;;;;;;;;;20.26;59.20;100905.31;5018331;27;97623;-67
2022/06/04 08:36:16;;;;;;;;;;;;;;;20.23;59.23;100905.97;5021195;27;98361;-67
2022/06/04 08:38:42;;;;;;;;;;;;;;;20.21;59.23;100913.69;5015154;27;97892;-61
2022/06/04 08:41:17;;;;;;;;;;;;;;;20.20;59.37;100920.28;5016162;27;125504;-67
2022/06/04 08:43:57;;;;;;;;;;;;;;;20.17;59.33;100921.75;5012782;27;125862;-61
2022/06/04 08:46:33;;;;;;;;;;;;;;;20.15;59.40;100923.97;5012727;28;97735;-67
2022/06/04 08:49:12;;;;;;;;;;;;;;;20.13;59.35;100929.00;5014079;27;97765;-62
2022/06/04 08:51:38;;;;;;;;;;;;;;;20.10;59.52;100930.44;5013906;28;97914;-61
2022/06/04 08:57:32;;;;;;;;;;;;;;;20.08;59.26;100929.13;5021933;27;126102;-67
2022/06/04 08:59:57;;;;;;;;;;;;;;;20.07;59.24;100942.00;5016917;27;97620;-61
2022/06/04 09:02:29;;;;;;;;;;;;;;;20.10;59.04;100938.63;5022321;27;123981;-66
2022/06/04 09:05:21;;;;;;;;;;;;;;;20.16;59.06;100935.72;5009899;27;126505;-61
2022/06/04 09:07:49;;;;;;;;;;;;;;;20.21;58.95;100939.13;5016193;27;97979;-66
2022/06/04 09:10:25;;;;;;;;;;;;;;;20.26;58.99;100946.38;5012721;28;97875;-61
2022/06/04 09:12:59;;;;;;;;;;;;;;;20.29;58.85;100941.06;4999771;27;98432;-61
2022/06/04 09:15:29;;;;;;;;;;;;;;;20.31;58.84;100944.28;4999433;28;98539;-61
2022/06/04 09:17:56;;;;;;;;;;;;;;;20.33;58.68;100947.50;5017273;27;98105;-67
2022/06/04 09:20:46;;;;;;;;;;;;;;;20.33;58.66;100949.44;5014493;27;98093;-67
2022/06/04 09:23:16;;;;;;;;;;;;;;;20.31;58.81;100946.22;5013673;27;99110;-67
2022/06/04 09:25:44;;;;;;;;;;;;;;;20.32;58.64;100954.13;5018107;27;122475;-67
2022/06/04 09:28:33;;;;;;;;;;;;;;;20.33;58.88;100955.72;5017728;27;98358;-67
2022/06/04 09:31:02;;;;;;;;;;;;;;;20.37;58.65;100960.56;5018696;27;97494;-66
2022/06/04 09:33:51;;;;;;;;;;;;;;;20.40;58.81;100954.44;5013709;27;97412;-67
2022/06/04 09:36:18;;;;;;;;;;;;;;;20.46;58.39;100958.63;5012443;27;115216;-61
2022/06/04 09:39:17;;;;;;;;;;;;;;;20.51;58.46;100963.97;5012355;27;109165;-63
2022/06/04 09:41:48;;;;;;;;;;;;;;;20.62;58.54;100964.44;5012265;28;116079;-61
2022/06/04 09:44:15;;;;;;;;;;;;;;;20.75;58.27;100957.97;5012150;27;126464;-67
2022/06/04 09:46:44;;;;;;;;;;;;;;;20.93;57.82;100958.78;5013066;27;99703;-67
2022/06/04 09:49:30;;;;;;;;;;;;;;;21.09;57.62;100959.88;5019360;27;98419;-61
2022/06/04 09:51:56;;;;;;;;;;;;;;;21.28;57.35;100960.31;5013050;27;98011;-67
2022/06/04 09:54:32;;;;;;;;;;;;;;;21.44;57.30;100957.84;5013095;28;127449;-68
2022/06/04 09:57:05;;;;;;;;;;;;;;;21.60;57.07;100960.84;5013183;27;98532;-61
2022/06/04 09:59:32;;;;;;;;;;;;;;;21.74;56.84;100966.94;5016463;27;97978;-62
2022/06/04 10:02:10;;;;;;;;;;;;;;;21.97;56.45;100966.66;5013870;27;98331;-63
2022/06/04 10:04:38;;;;;;;;;;;;;;;22.23;56.09;100964.56;5013484;28;98112;-62
2022/06/04 10:07:08;;;;;;;;;;;;;;;22.40;55.82;100968.28;5019870;27;98637;-67
2022/06/04 10:12:21;;;;;;;;;;;;;;;22.61;55.20;100973.81;5008876;28;97669;-67
2022/06/04 10:14:58;;;;;;;;;;;;;;;22.70;55.05;100972.56;4998683;27;97557;-67
2022/06/04 10:17:33;;;;;;;;;;;;;;;22.75;55.03;100975.13;5015322;27;122526;-67
2022/06/04 10:19:59;;;;;;;;;;;;;;;22.78;55.17;100971.69;5013864;27;98222;-62
2022/06/04 10:22:25;;;;;;;;;;;;;;;22.85;55.11;100978.59;5012774;27;116367;-63
2022/06/04 10:24:56;;;;;;;;;;;;;;;22.93;54.70;100975.00;5019469;27;125516;-62
2022/06/04 10:27:36;;;;;;;;;;;;;;;23.05;54.35;100979.72;5012739;28;118565;-61
2022/06/04 10:30:09;;;;;;;;;;;;;;;23.12;54.41;100983.53;5006019;27;116148;-62
2022/06/04 10:32:57;;;;;;;;;;;;;;;23.28;54.12;100972.69;4996415;28;99215;-67
2022/06/04 10:35:38;;;;;;;;;;;;;;;23.57;53.48;100981.88;5014829;27;98037;-67
2022/06/04 10:38:15;;;;;;;;;;;;;;;23.79;52.84;100977.91;5011629;27;97822;-62
2022/06/04 10:41:04;;;;;;;;;;;;;;;24.03;52.40;100986.16;5010637;27;98307;-67
2022/06/04 10:44:00;;;;;;;;;;;;;;;24.18;52.59;100985.44;5001159;27;97716;-67
2022/06/04 10:46:32;;;;;;;;;;;;;;;24.20;52.13;100985.09;5017888;27;98672;-61
2022/06/04 10:49:19;;;;;;;;;;;;;;;24.22;51.99;100978.09;5018327;27;98394;-61
2022/06/04 10:51:51;;;;;;;;;;;;;;;24.23;51.85;100981.63;5010468;28;97845;-62
2022/06/04 10:54:25;;;;;;;;;;;;;;;24.19;51.78;100980.72;5018997;27;97852;-62
2022/06/04 10:56:57;;;;;;;;;;;;;;;24.29;51.31;100980.25;4994374;28;98874;-68
2022/06/04 10:59:37;;;;;;;;;;;;;;;24.44;51.05;100987.00;5011373;27;99130;-66
2022/06/04 11:02:15;;;;;;;;;;;;;;;24.55;51.06;100981.81;4994483;28;119415;-62
2022/06/04 11:04:48;;;;;;;;;;;;;;;24.74;50.81;100984.72;5019576;27;97628;-67
2022/06/04 11:07:33;;;;;;;;;;;;;;;24.83;49.79;100977.09;5011666;27;98639;-62
2022/06/04 11:09:59;;;;;;;;;;;;;;;24.81;49.50;100984.13;5010058;28;97643;-67
2022/06/04 11:12:45;;;;;;;;;;;;;;;24.69;49.30;100982.22;5009959;27;125792;-61
2022/06/04 11:15:21;;;;;;;;;;;;;;;24.54;48.95;100983.78;5010461;27;112354;-67
2022/06/04 11:17:59;;;;;;;;;;;;;;;24.39;49.02;100981.75;5013852;27;97998;-67
2022/06/04 11:20:27;;;;;;;;;;;;;;;24.19;48.65;100978.78;5009850;28;125447;-68
2022/06/04 11:23:07;;;;;;;;;;;;;;;24.04;48.46;100984.19;4993233;28;118546;-62
2022/06/04 11:25:34;;;;;;;;;;;;;;;23.88;48.61;100987.63;5012579;27;97817;-67
2022/06/04 11:28:08;;;;;;;;;;;;;;;23.73;48.92;100980.88;5015591;27;98217;-61
2022/06/04 11:30:34;;;;;;;;;;;;;;;23.59;49.01;100983.16;5006054;28;120659;-67
2022/06/04 11:33:21;;;;;;;;;;;;;;;23.44;49.42;100987.38;5019797;27;98256;-62
2022/06/04 11:35:57;;;;;;;;;;;;;;;23.27;49.11;100995.81;5015157;28;97533;-68
2022/06/04 11:38:33;;;;;;;;;;;;;;;23.12;49.48;101000.03;5001553;27;122154;-62
2022/06/04 11:41:12;;;;;;;;;;;;;;;23.01;49.53;100998.84;5015816;27;98322;-67
2022/06/04 11:43:48;;;;;;;;;;;;;;;22.93;49.86;100999.72;5017213;27;126637;-62
2022/06/04 11:46:45;;;;;;;;;;;;;;;22.89;49.94;100999.56;5013637;28;100342;-67
2022/06/04 11:49:31;;;;;;;;;;;;;;;22.89;49.89;101001.50;5020468;27;98088;-62
2022/06/04 11:52:22;;;;;;;;;;;;;;;22.94;49.89;101009.56;5013565;28;98618;-61
2022/06/04 11:55:03;;;;;;;;;;;;;;;23.04;49.46;101006.41;5011202;28;97477;-61
2022/06/04 11:57:41;;;;;;;;;;;;;;;23.21;49.44;101005.41;5012920;27;104271;-68
2022/06/04 12:00:32;;;;;;;;;;;;;;;23.40;49.24;101005.69;5012707;27;124067;-67
2022/06/04 12:03:14;;;;;;;;;;;;;;;23.60;48.67;100990.25;5018964;27;97898;-67
2022/06/04 12:06:07;;;;;;;;;;;;;;;23.81;48.35;100989.34;5015899;27;127788;-68
2022/06/04 12:08:41;;;;;;;;;;;;;;;23.98;48.15;100998.19;5015714;27;117218;-68
2022/06/04 12:11:32;;;;;;;;;;;;;;;24.14;47.60;100998.28;4996716;28;97874;-62
2022/06/04 12:14:34;;;;;;;;;;;;;;;24.37;47.65;100995.06;5014112;27;109736;-62
2022/06/04 12:17:21;;;;;;;;;;;;;;;24.60;47.22;100993.41;5014512;27;127165;-67
2022/06/04 12:25:42;;;;;;;;;;;;;;;24.94;46.78;100997.50;5007782;28;98185;-68
2022/06/04 12:28:27;;;;;;;;;;;;;;;24.95;46.71;101003.81;5016346;27;97482;-62
2022/06/04 12:30:53;;;;;;;;;;;;;;;24.90;46.90;101006.81;5013390;28;97820;-68
2022/06/04 12:33:31;;;;;;;;;;;;;;;25.02;46.38;101006.75;5021109;27;119960;-62
2022/06/04 12:36:02;;;;;;;;;;;;;;;25.46;45.78;101004.00;5017541;27;123810;-64
2022/06/04 12:38:28;;;;;;;;;;;;;;;25.93;45.33;101006.78;5014864;27;98036;-62
2022/06/04 12:41:17;;;;;;;;;;;;;;;26.23;44.74;100997.19;5016179;27;117444;-68
2022/06/04 12:43:45;;;;;;;;;;;;;;;26.53;43.50;101005.78;5012075;27;119696;-67
2022/06/04 12:46:24;;;;;;;;;;;;;;;26.58;43.70;101009.03;5012673;28;126807;-62
2022/06/04 12:49:01;;;;;;;;;;;;;;;26.58;43.75;101009.03;5020428;27;97508;-62
2022/06/04 12:51:35;;;;;;;;;;;;;;;26.51;44.02;101017.19;5009380;27;97671;-68
2022/06/04 12:54:20;;;;;;;;;;;;;;;26.61;43.77;101008.31;5013397;28;98514;-68
2022/06/04 12:56:53;;;;;;;;;;;;;;;26.90;43.34;101015.22;5011902;28;126201;-68
2022/06/04 12:59:42;;;;;;;;;;;;;;;27.15;42.98;101012.94;5013170;27;99313;-62
2022/06/04 13:02:27;;;;;;;;;;;;;;;27.28;42.79;101005.31;5015039;27;97567;-68
2022/06/04 13:05:19;;;;;;;;;;;;;;;27.46;42.43;101000.06;5012996;28;98515;-62
2022/06/04 13:08:01;;;;;;;;;;;;;;;28.41;40.76;101003.91;5014220;27;110427;-62
2022/06/04 13:10:50;;;;;;;;;;;;;;;28.55;40.88;101004.13;5017145;27;98917;-62
2022/06/04 13:13:31;;;;;;;;;;;;;;;28.57;40.66;101001.75;5007262;27;114677;-62
2022/06/04 13:16:03;;;;;;;;;;;;;;;28.67;40.41;101011.38;5013674;27;98452;-62